ASY541 KHRL-KSRQ
Flight info
| Callsign | ASY541 |
|---|---|
| Flight time | 2h 34m |
| Altitude | 25000 |
| Route | HRL RELAX KELPP BACCA Q102 CIGAR RAYZZ2 |
| Aircraft | B350/L-SBGRW/S |
Departure
| Time | 2026-04-27 09:06 |
|---|---|
| Airport | Valley International Airport (KHRL) |
Arrival
| Time | 2026-04-27 11:40 |
|---|---|
| Airport | Sarasota Bradenton International Airport (KSRQ) |
| Time | Latitude | Longitude | Altitude | Speed | Heading |
|---|---|---|---|---|---|
| 2026-04-27 09:02 | 26.22323 | -97.64437 | 45 ft | 7 kts | 176° |
| 2026-04-27 09:02 | 26.22305 | -97.64397 | 45 ft | 7 kts | 62° |
| 2026-04-27 09:02 | 26.22357 | -97.64382 | 45 ft | 12 kts | 5° |
| 2026-04-27 09:02 | 26.22440 | -97.64400 | 45 ft | 12 kts | 297° |
| 2026-04-27 09:03 | 26.22435 | -97.64522 | 46 ft | 20 kts | 263° |
| 2026-04-27 09:03 | 26.22434 | -97.64622 | 46 ft | 13 kts | 270° |
| 2026-04-27 09:03 | 26.22437 | -97.64699 | 46 ft | 0 kts | 270° |
| 2026-04-27 09:04 | 26.22437 | -97.64730 | 46 ft | 10 kts | 266° |
| 2026-04-27 09:04 | 26.22373 | -97.64757 | 46 ft | 14 kts | 181° |
| 2026-04-27 09:04 | 26.22244 | -97.64760 | 43 ft | 23 kts | 180° |
| 2026-04-27 09:05 | 26.22063 | -97.64761 | 44 ft | 28 kts | 181° |
| 2026-04-27 09:05 | 26.21926 | -97.64820 | 47 ft | 13 kts | 222° |
| 2026-04-27 09:05 | 26.21934 | -97.64913 | 45 ft | 38 kts | 316° |
| 2026-04-27 09:05 | 26.22311 | -97.65322 | 48 ft | 109 kts | 317° |
| 2026-04-27 09:06 | 26.22962 | -97.66022 | 210 ft | 140 kts | 312° |
| 2026-04-27 09:06 | 26.23676 | -97.66852 | 552 ft | 167 kts | 309° |
| 2026-04-27 09:06 | 26.24605 | -97.67809 | 927 ft | 193 kts | 315° |
| 2026-04-27 09:06 | 26.25633 | -97.68841 | 1556 ft | 207 kts | 312° |
| 2026-04-27 09:07 | 26.26710 | -97.69972 | 2166 ft | 218 kts | 313° |
| 2026-04-27 09:07 | 26.27885 | -97.71107 | 2755 ft | 229 kts | 324° |
| 2026-04-27 09:07 | 26.29402 | -97.71748 | 3324 ft | 239 kts | 351° |
| 2026-04-27 09:07 | 26.31065 | -97.71616 | 3899 ft | 243 kts | 18° |
| 2026-04-27 09:08 | 26.32546 | -97.70729 | 4479 ft | 243 kts | 43° |
| 2026-04-27 09:08 | 26.33556 | -97.69278 | 5043 ft | 238 kts | 68° |
| 2026-04-27 09:08 | 26.33931 | -97.67512 | 5623 ft | 232 kts | 93° |
| 2026-04-27 09:08 | 26.33606 | -97.65787 | 6201 ft | 227 kts | 117° |
| 2026-04-27 09:09 | 26.33053 | -97.64804 | 6582 ft | 225 kts | 129° |
| 2026-04-27 09:09 | 26.31807 | -97.62926 | 7342 ft | 227 kts | 123° |
| 2026-04-27 09:09 | 26.31138 | -97.61325 | 7927 ft | 229 kts | 110° |
| 2026-04-27 09:09 | 26.30746 | -97.59586 | 8459 ft | 234 kts | 104° |
| 2026-04-27 09:10 | 26.30378 | -97.57795 | 8943 ft | 240 kts | 106° |
| 2026-04-27 09:10 | 26.29938 | -97.55983 | 9439 ft | 244 kts | 107° |
| 2026-04-27 09:10 | 26.29492 | -97.54165 | 9912 ft | 248 kts | 106° |
| 2026-04-27 09:10 | 26.29056 | -97.52288 | 10371 ft | 251 kts | 105° |
| 2026-04-27 09:11 | 26.28614 | -97.50391 | 10827 ft | 254 kts | 105° |
| 2026-04-27 09:11 | 26.28154 | -97.48478 | 11297 ft | 257 kts | 105° |
| 2026-04-27 09:11 | 26.27694 | -97.46547 | 11778 ft | 259 kts | 105° |
| 2026-04-27 09:11 | 26.27235 | -97.44600 | 12260 ft | 261 kts | 105° |
| 2026-04-27 09:12 | 26.26925 | -97.43297 | 12585 ft | 263 kts | 105° |
| 2026-04-27 09:12 | 26.26296 | -97.40654 | 13249 ft | 265 kts | 105° |
| 2026-04-27 09:12 | 26.25891 | -97.38641 | 13725 ft | 267 kts | 95° |
| 2026-04-27 09:12 | 26.25998 | -97.36581 | 14180 ft | 267 kts | 78° |
| 2026-04-27 09:13 | 26.26374 | -97.34547 | 14645 ft | 268 kts | 77° |
| 2026-04-27 09:13 | 26.26587 | -97.33190 | 14946 ft | 270 kts | 80° |
| 2026-04-27 09:13 | 26.26893 | -97.30401 | 15577 ft | 272 kts | 81° |
| 2026-04-27 09:13 | 26.27159 | -97.28287 | 15918 ft | 280 kts | 79° |
| 2026-04-27 09:14 | 26.27361 | -97.26853 | 16114 ft | 285 kts | 79° |
| 2026-04-27 09:14 | 26.27657 | -97.24639 | 16405 ft | 292 kts | 80° |
| 2026-04-27 09:14 | 26.27936 | -97.22381 | 16701 ft | 297 kts | 81° |
| 2026-04-27 09:14 | 26.28328 | -97.19331 | 17103 ft | 302 kts | 80° |
| 2026-04-27 09:15 | 26.28534 | -97.17764 | 17305 ft | 304 kts | 80° |
| 2026-04-27 09:15 | 26.28829 | -97.15451 | 17609 ft | 306 kts | 80° |
| 2026-04-27 09:15 | 26.29129 | -97.13095 | 17917 ft | 308 kts | 80° |
| 2026-04-27 09:15 | 26.29434 | -97.10723 | 18217 ft | 310 kts | 80° |
| 2026-04-27 09:16 | 26.29740 | -97.08334 | 18483 ft | 312 kts | 80° |
| 2026-04-27 09:16 | 26.30045 | -97.05938 | 18755 ft | 313 kts | 80° |
| 2026-04-27 09:16 | 26.30352 | -97.03532 | 19031 ft | 314 kts | 80° |
| 2026-04-27 09:16 | 26.30659 | -97.01119 | 19306 ft | 314 kts | 80° |
| 2026-04-27 09:17 | 26.30967 | -96.98706 | 19586 ft | 315 kts | 81° |
| 2026-04-27 09:17 | 26.31272 | -96.96289 | 19867 ft | 315 kts | 81° |
| 2026-04-27 09:17 | 26.31580 | -96.93859 | 20152 ft | 316 kts | 81° |
| 2026-04-27 09:17 | 26.31889 | -96.91433 | 20441 ft | 316 kts | 81° |
| 2026-04-27 09:18 | 26.32195 | -96.89005 | 20733 ft | 316 kts | 81° |
| 2026-04-27 09:18 | 26.32502 | -96.86576 | 21024 ft | 317 kts | 81° |
| 2026-04-27 09:18 | 26.32809 | -96.84145 | 21322 ft | 317 kts | 81° |
| 2026-04-27 09:18 | 26.33116 | -96.81703 | 21621 ft | 318 kts | 81° |
| 2026-04-27 09:19 | 26.33419 | -96.79294 | 21919 ft | 318 kts | 81° |
| 2026-04-27 09:19 | 26.33730 | -96.76817 | 22230 ft | 318 kts | 81° |
| 2026-04-27 09:19 | 26.34033 | -96.74401 | 22537 ft | 319 kts | 81° |
| 2026-04-27 09:19 | 26.34344 | -96.71922 | 22850 ft | 319 kts | 81° |
| 2026-04-27 09:20 | 26.34647 | -96.69496 | 23166 ft | 319 kts | 81° |
| 2026-04-27 09:20 | 26.34953 | -96.67041 | 23471 ft | 320 kts | 81° |
| 2026-04-27 09:20 | 26.35260 | -96.64584 | 23735 ft | 320 kts | 81° |
| 2026-04-27 09:20 | 26.35567 | -96.62122 | 24000 ft | 321 kts | 80° |
| 2026-04-27 09:21 | 26.35873 | -96.59655 | 24270 ft | 322 kts | 80° |
| 2026-04-27 09:21 | 26.36180 | -96.57182 | 24542 ft | 322 kts | 80° |
| 2026-04-27 09:21 | 26.36488 | -96.54705 | 24806 ft | 324 kts | 80° |
| 2026-04-27 09:21 | 26.36802 | -96.52176 | 24825 ft | 334 kts | 80° |
| 2026-04-27 09:22 | 26.37123 | -96.49576 | 24833 ft | 342 kts | 80° |
| 2026-04-27 09:22 | 26.37449 | -96.46919 | 24832 ft | 348 kts | 80° |
| 2026-04-27 09:22 | 26.37781 | -96.44222 | 24836 ft | 353 kts | 80° |
| 2026-04-27 09:22 | 26.38117 | -96.41499 | 24840 ft | 356 kts | 80° |
| 2026-04-27 09:23 | 26.38455 | -96.38751 | 24838 ft | 359 kts | 80° |
| 2026-04-27 09:23 | 26.38789 | -96.36017 | 24839 ft | 360 kts | 80° |
| 2026-04-27 09:23 | 26.39129 | -96.33244 | 24838 ft | 362 kts | 80° |
| 2026-04-27 09:23 | 26.39470 | -96.30456 | 24842 ft | 363 kts | 80° |
| 2026-04-27 09:24 | 26.39810 | -96.27667 | 24839 ft | 363 kts | 80° |
| 2026-04-27 09:24 | 26.40151 | -96.24867 | 24841 ft | 364 kts | 80° |
| 2026-04-27 09:24 | 26.40493 | -96.22067 | 24844 ft | 364 kts | 80° |
| 2026-04-27 09:24 | 26.40832 | -96.19266 | 24840 ft | 365 kts | 80° |
| 2026-04-27 09:25 | 26.41171 | -96.16460 | 24841 ft | 365 kts | 80° |
| 2026-04-27 09:25 | 26.41513 | -96.13657 | 24839 ft | 365 kts | 80° |
| 2026-04-27 09:25 | 26.41851 | -96.10851 | 24842 ft | 365 kts | 81° |
| 2026-04-27 09:25 | 26.42188 | -96.08045 | 24842 ft | 365 kts | 80° |
| 2026-04-27 09:26 | 26.42528 | -96.05238 | 24842 ft | 365 kts | 80° |
| 2026-04-27 09:26 | 26.42865 | -96.02432 | 24840 ft | 365 kts | 80° |
| 2026-04-27 09:26 | 26.43202 | -95.99623 | 24842 ft | 365 kts | 81° |
| 2026-04-27 09:26 | 26.43538 | -95.96811 | 24843 ft | 365 kts | 80° |
| 2026-04-27 09:27 | 26.43871 | -95.94039 | 24844 ft | 365 kts | 80° |
| 2026-04-27 09:27 | 26.44206 | -95.91230 | 24851 ft | 365 kts | 80° |
| 2026-04-27 09:27 | 26.44541 | -95.88418 | 24849 ft | 365 kts | 80° |
| 2026-04-27 09:27 | 26.44876 | -95.85611 | 24849 ft | 365 kts | 80° |
| 2026-04-27 09:28 | 26.45209 | -95.82803 | 24849 ft | 365 kts | 80° |
| 2026-04-27 09:28 | 26.45541 | -95.79995 | 24849 ft | 365 kts | 80° |
| 2026-04-27 09:28 | 26.45875 | -95.77178 | 24850 ft | 365 kts | 80° |
| 2026-04-27 09:28 | 26.46208 | -95.74371 | 24854 ft | 365 kts | 80° |
| 2026-04-27 09:29 | 26.46538 | -95.71563 | 24854 ft | 365 kts | 80° |
| 2026-04-27 09:29 | 26.46870 | -95.68746 | 24852 ft | 365 kts | 80° |
| 2026-04-27 09:29 | 26.47201 | -95.65935 | 24853 ft | 365 kts | 80° |
| 2026-04-27 09:29 | 26.47532 | -95.63124 | 24855 ft | 365 kts | 80° |
| 2026-04-27 09:30 | 26.47857 | -95.60347 | 24851 ft | 365 kts | 80° |
| 2026-04-27 09:30 | 26.48185 | -95.57535 | 24849 ft | 365 kts | 80° |
| 2026-04-27 09:30 | 26.48515 | -95.54721 | 24855 ft | 365 kts | 80° |
| 2026-04-27 09:30 | 26.48842 | -95.51915 | 24859 ft | 365 kts | 80° |
| 2026-04-27 09:31 | 26.49168 | -95.49102 | 24855 ft | 365 kts | 80° |
| 2026-04-27 09:31 | 26.49496 | -95.46290 | 24854 ft | 365 kts | 80° |
| 2026-04-27 09:31 | 26.49822 | -95.43475 | 24860 ft | 365 kts | 80° |
| 2026-04-27 09:31 | 26.50147 | -95.40662 | 24856 ft | 365 kts | 80° |
| 2026-04-27 09:32 | 26.50473 | -95.37849 | 24855 ft | 365 kts | 80° |
| 2026-04-27 09:32 | 26.50797 | -95.35038 | 24856 ft | 365 kts | 80° |
| 2026-04-27 09:32 | 26.51117 | -95.32260 | 24865 ft | 365 kts | 80° |
| 2026-04-27 09:32 | 26.51440 | -95.29449 | 24861 ft | 365 kts | 80° |
| 2026-04-27 09:33 | 26.51763 | -95.26636 | 24858 ft | 365 kts | 80° |
| 2026-04-27 09:33 | 26.52085 | -95.23824 | 24858 ft | 365 kts | 80° |
| 2026-04-27 09:33 | 26.52406 | -95.21015 | 24860 ft | 365 kts | 80° |
| 2026-04-27 09:33 | 26.52728 | -95.18200 | 24861 ft | 365 kts | 80° |
| 2026-04-27 09:34 | 26.53048 | -95.15392 | 24863 ft | 365 kts | 80° |
| 2026-04-27 09:34 | 26.53368 | -95.12579 | 24859 ft | 365 kts | 80° |
| 2026-04-27 09:34 | 26.53687 | -95.09765 | 24859 ft | 365 kts | 80° |
| 2026-04-27 09:34 | 26.54006 | -95.06954 | 24866 ft | 365 kts | 80° |
| 2026-04-27 09:35 | 26.54324 | -95.04146 | 24865 ft | 365 kts | 80° |
| 2026-04-27 09:35 | 26.54641 | -95.01336 | 24867 ft | 365 kts | 80° |
| 2026-04-27 09:35 | 26.54958 | -94.98520 | 24863 ft | 365 kts | 80° |
| 2026-04-27 09:35 | 26.55275 | -94.95713 | 24864 ft | 365 kts | 80° |
| 2026-04-27 09:36 | 26.55591 | -94.92902 | 24865 ft | 365 kts | 80° |
| 2026-04-27 09:36 | 26.55906 | -94.90087 | 24867 ft | 365 kts | 80° |
| 2026-04-27 09:36 | 26.56220 | -94.87278 | 24869 ft | 365 kts | 80° |
| 2026-04-27 09:36 | 26.56531 | -94.84501 | 24862 ft | 365 kts | 80° |
| 2026-04-27 09:37 | 26.56848 | -94.81654 | 24866 ft | 365 kts | 80° |
| 2026-04-27 09:37 | 26.57161 | -94.78846 | 24873 ft | 365 kts | 80° |
| 2026-04-27 09:37 | 26.57473 | -94.76036 | 24874 ft | 364 kts | 80° |
| 2026-04-27 09:37 | 26.57784 | -94.73224 | 24869 ft | 364 kts | 80° |
| 2026-04-27 09:38 | 26.58096 | -94.70415 | 24873 ft | 364 kts | 80° |
| 2026-04-27 09:38 | 26.58404 | -94.67636 | 24873 ft | 364 kts | 80° |
| 2026-04-27 09:38 | 26.58713 | -94.64826 | 24875 ft | 364 kts | 80° |
| 2026-04-27 09:38 | 26.59022 | -94.62017 | 24876 ft | 364 kts | 80° |
| 2026-04-27 09:39 | 26.59332 | -94.59204 | 24878 ft | 364 kts | 80° |
| 2026-04-27 09:39 | 26.59640 | -94.56396 | 24873 ft | 365 kts | 80° |
| 2026-04-27 09:39 | 26.59947 | -94.53584 | 24878 ft | 365 kts | 80° |
| 2026-04-27 09:39 | 26.60256 | -94.50769 | 24879 ft | 365 kts | 80° |
| 2026-04-27 09:40 | 26.60563 | -94.47951 | 24876 ft | 364 kts | 80° |
| 2026-04-27 09:40 | 26.60868 | -94.45144 | 24878 ft | 365 kts | 80° |
| 2026-04-27 09:40 | 26.61174 | -94.42330 | 24883 ft | 364 kts | 80° |
| 2026-04-27 09:40 | 26.61479 | -94.39519 | 24882 ft | 365 kts | 80° |
| 2026-04-27 09:41 | 26.61785 | -94.36704 | 24877 ft | 365 kts | 80° |
| 2026-04-27 09:41 | 26.62088 | -94.33891 | 24881 ft | 365 kts | 80° |
| 2026-04-27 09:41 | 26.62391 | -94.31080 | 24881 ft | 365 kts | 80° |
| 2026-04-27 09:41 | 26.62695 | -94.28261 | 24885 ft | 365 kts | 80° |
| 2026-04-27 09:42 | 26.62998 | -94.25447 | 24882 ft | 365 kts | 80° |
| 2026-04-27 09:42 | 26.63299 | -94.22636 | 24886 ft | 365 kts | 80° |
| 2026-04-27 09:42 | 26.63597 | -94.19854 | 24890 ft | 365 kts | 80° |
| 2026-04-27 09:42 | 26.63898 | -94.17039 | 24891 ft | 365 kts | 80° |
| 2026-04-27 09:43 | 26.64199 | -94.14223 | 24890 ft | 365 kts | 80° |
| 2026-04-27 09:43 | 26.64498 | -94.11407 | 24892 ft | 365 kts | 80° |
| 2026-04-27 09:43 | 26.64797 | -94.08593 | 24888 ft | 365 kts | 80° |
| 2026-04-27 09:43 | 26.65096 | -94.05776 | 24884 ft | 365 kts | 80° |
| 2026-04-27 09:44 | 26.65399 | -94.02920 | 24888 ft | 365 kts | 80° |
| 2026-04-27 09:44 | 26.65692 | -94.00137 | 24893 ft | 365 kts | 80° |
| 2026-04-27 09:44 | 26.65990 | -93.97318 | 24888 ft | 365 kts | 80° |
| 2026-04-27 09:44 | 26.66287 | -93.94495 | 24898 ft | 365 kts | 80° |
| 2026-04-27 09:45 | 26.66583 | -93.91669 | 24895 ft | 366 kts | 80° |
| 2026-04-27 09:45 | 26.66879 | -93.88849 | 24894 ft | 366 kts | 80° |
| 2026-04-27 09:45 | 26.67175 | -93.86027 | 24896 ft | 366 kts | 80° |
| 2026-04-27 09:45 | 26.67470 | -93.83199 | 24899 ft | 366 kts | 80° |
| 2026-04-27 09:46 | 26.67764 | -93.80377 | 24899 ft | 366 kts | 80° |
| 2026-04-27 09:46 | 26.68059 | -93.77547 | 24898 ft | 366 kts | 80° |
| 2026-04-27 09:46 | 26.68352 | -93.74723 | 24895 ft | 366 kts | 80° |
| 2026-04-27 09:46 | 26.68645 | -93.71892 | 24900 ft | 366 kts | 80° |
| 2026-04-27 09:47 | 26.68938 | -93.69060 | 24900 ft | 366 kts | 80° |
| 2026-04-27 09:47 | 26.69231 | -93.66230 | 24895 ft | 366 kts | 80° |
| 2026-04-27 09:47 | 26.69522 | -93.63399 | 24902 ft | 366 kts | 80° |
| 2026-04-27 09:47 | 26.69814 | -93.60565 | 24899 ft | 366 kts | 80° |
| 2026-04-27 09:48 | 26.70104 | -93.57735 | 24904 ft | 366 kts | 80° |
| 2026-04-27 09:48 | 26.70394 | -93.54902 | 24901 ft | 366 kts | 80° |
| 2026-04-27 09:48 | 26.70683 | -93.52072 | 24901 ft | 366 kts | 80° |
| 2026-04-27 09:48 | 26.70972 | -93.49239 | 24902 ft | 366 kts | 80° |
| 2026-04-27 09:49 | 26.71260 | -93.46410 | 24900 ft | 366 kts | 80° |
| 2026-04-27 09:49 | 26.71548 | -93.43585 | 24903 ft | 366 kts | 80° |
| 2026-04-27 09:49 | 26.71835 | -93.40755 | 24901 ft | 366 kts | 80° |
| 2026-04-27 09:49 | 26.72116 | -93.37958 | 24905 ft | 366 kts | 80° |
| 2026-04-27 09:50 | 26.72403 | -93.35128 | 24909 ft | 366 kts | 80° |
| 2026-04-27 09:50 | 26.72689 | -93.32296 | 24908 ft | 366 kts | 80° |
| 2026-04-27 09:50 | 26.72972 | -93.29468 | 24904 ft | 366 kts | 80° |
| 2026-04-27 09:50 | 26.73256 | -93.26638 | 24906 ft | 366 kts | 80° |
| 2026-04-27 09:51 | 26.73540 | -93.23813 | 24908 ft | 366 kts | 80° |
| 2026-04-27 09:51 | 26.73823 | -93.20985 | 24909 ft | 366 kts | 80° |
| 2026-04-27 09:51 | 26.74105 | -93.18152 | 24911 ft | 366 kts | 80° |
| 2026-04-27 09:51 | 26.74387 | -93.15326 | 24911 ft | 366 kts | 80° |
| 2026-04-27 09:52 | 26.74668 | -93.12501 | 24910 ft | 366 kts | 80° |
| 2026-04-27 09:52 | 26.74949 | -93.09668 | 24914 ft | 366 kts | 80° |
| 2026-04-27 09:52 | 26.75228 | -93.06836 | 24915 ft | 366 kts | 80° |
| 2026-04-27 09:52 | 26.75507 | -93.04011 | 24913 ft | 366 kts | 80° |
| 2026-04-27 09:53 | 26.75787 | -93.01184 | 24915 ft | 366 kts | 80° |
| 2026-04-27 09:53 | 26.76065 | -92.98353 | 24916 ft | 366 kts | 80° |
| 2026-04-27 09:53 | 26.76342 | -92.95523 | 24912 ft | 366 kts | 80° |
| 2026-04-27 09:53 | 26.76619 | -92.92700 | 24916 ft | 366 kts | 80° |
| 2026-04-27 09:54 | 26.76896 | -92.89870 | 24918 ft | 366 kts | 80° |
| 2026-04-27 09:54 | 26.77168 | -92.87075 | 24919 ft | 365 kts | 80° |
| 2026-04-27 09:54 | 26.77443 | -92.84250 | 24920 ft | 365 kts | 80° |
| 2026-04-27 09:54 | 26.77718 | -92.81420 | 24919 ft | 365 kts | 80° |
| 2026-04-27 09:55 | 26.77992 | -92.78594 | 24918 ft | 365 kts | 80° |
| 2026-04-27 09:55 | 26.78265 | -92.75769 | 24919 ft | 365 kts | 80° |
| 2026-04-27 09:55 | 26.78810 | -92.70119 | 24919 ft | 365 kts | 80° |
| 2026-04-27 09:56 | 26.79081 | -92.67293 | 24919 ft | 365 kts | 80° |
| 2026-04-27 09:56 | 26.79353 | -92.64466 | 24920 ft | 365 kts | 80° |
| 2026-04-27 09:56 | 26.79624 | -92.61640 | 24917 ft | 365 kts | 80° |
| 2026-04-27 09:56 | 26.79893 | -92.58815 | 24921 ft | 365 kts | 80° |
| 2026-04-27 09:57 | 26.80162 | -92.55995 | 24923 ft | 364 kts | 80° |
| 2026-04-27 09:57 | 26.80430 | -92.53171 | 24919 ft | 364 kts | 80° |
| 2026-04-27 09:57 | 26.80698 | -92.50352 | 24921 ft | 364 kts | 80° |
| 2026-04-27 09:57 | 26.80875 | -92.48480 | 24924 ft | 364 kts | 80° |
| 2026-04-27 09:58 | 26.81141 | -92.45666 | 24922 ft | 364 kts | 80° |
| 2026-04-27 09:58 | 26.81496 | -92.41901 | 24924 ft | 363 kts | 80° |
| 2026-04-27 09:58 | 26.81671 | -92.40040 | 24920 ft | 363 kts | 80° |
| 2026-04-27 09:58 | 26.81936 | -92.37226 | 24921 ft | 363 kts | 80° |
| 2026-04-27 09:59 | 26.82200 | -92.34417 | 24925 ft | 363 kts | 80° |
| 2026-04-27 09:59 | 26.82462 | -92.31608 | 24925 ft | 362 kts | 80° |
| 2026-04-27 09:59 | 26.82723 | -92.28800 | 24924 ft | 362 kts | 80° |
| 2026-04-27 09:59 | 26.82985 | -92.26000 | 24929 ft | 362 kts | 80° |
| 2026-04-27 10:00 | 26.83246 | -92.23195 | 24923 ft | 361 kts | 80° |
| 2026-04-27 10:00 | 26.83501 | -92.20435 | 24928 ft | 361 kts | 80° |
| 2026-04-27 10:00 | 26.83760 | -92.17640 | 24927 ft | 361 kts | 80° |
| 2026-04-27 10:00 | 26.84019 | -92.14838 | 24922 ft | 360 kts | 80° |
| 2026-04-27 10:01 | 26.84275 | -92.12049 | 24919 ft | 360 kts | 80° |
| 2026-04-27 10:01 | 26.84533 | -92.09255 | 24923 ft | 360 kts | 80° |
| 2026-04-27 10:01 | 26.84789 | -92.06470 | 24926 ft | 360 kts | 80° |
| 2026-04-27 10:01 | 26.85043 | -92.03679 | 24928 ft | 359 kts | 80° |
| 2026-04-27 10:02 | 26.85298 | -92.00894 | 24931 ft | 359 kts | 80° |
| 2026-04-27 10:02 | 26.85552 | -91.98113 | 24928 ft | 359 kts | 80° |
| 2026-04-27 10:02 | 26.85805 | -91.95331 | 24930 ft | 359 kts | 80° |
| 2026-04-27 10:02 | 26.86056 | -91.92550 | 24927 ft | 359 kts | 80° |
| 2026-04-27 10:03 | 26.86309 | -91.89771 | 24931 ft | 359 kts | 80° |
| 2026-04-27 10:03 | 26.86561 | -91.86990 | 24935 ft | 359 kts | 80° |
| 2026-04-27 10:03 | 26.86808 | -91.84245 | 24932 ft | 358 kts | 80° |
| 2026-04-27 10:03 | 26.87057 | -91.81466 | 24928 ft | 359 kts | 80° |
| 2026-04-27 10:04 | 26.87307 | -91.78690 | 24934 ft | 358 kts | 80° |
| 2026-04-27 10:04 | 26.87555 | -91.75914 | 24930 ft | 358 kts | 80° |
| 2026-04-27 10:04 | 26.87803 | -91.73138 | 24932 ft | 358 kts | 80° |
| 2026-04-27 10:04 | 26.88050 | -91.70362 | 24928 ft | 358 kts | 80° |
| 2026-04-27 10:05 | 26.88298 | -91.67582 | 24933 ft | 358 kts | 80° |
| 2026-04-27 10:05 | 26.88545 | -91.64806 | 24933 ft | 358 kts | 80° |
| 2026-04-27 10:05 | 26.88791 | -91.62025 | 24936 ft | 358 kts | 80° |
| 2026-04-27 10:05 | 26.89036 | -91.59248 | 24937 ft | 358 kts | 80° |
| 2026-04-27 10:06 | 26.89280 | -91.56473 | 24936 ft | 358 kts | 80° |
| 2026-04-27 10:06 | 26.89525 | -91.53699 | 24938 ft | 358 kts | 80° |
| 2026-04-27 10:06 | 26.89769 | -91.50916 | 24936 ft | 358 kts | 80° |
| 2026-04-27 10:06 | 26.90012 | -91.48139 | 24940 ft | 358 kts | 80° |
| 2026-04-27 10:07 | 26.90255 | -91.45361 | 24937 ft | 358 kts | 80° |
| 2026-04-27 10:07 | 26.90497 | -91.42586 | 24941 ft | 358 kts | 80° |
| 2026-04-27 10:07 | 26.90738 | -91.39805 | 24942 ft | 358 kts | 80° |
| 2026-04-27 10:07 | 26.90980 | -91.37028 | 24938 ft | 358 kts | 80° |
| 2026-04-27 10:08 | 26.91217 | -91.34286 | 24937 ft | 358 kts | 80° |
| 2026-04-27 10:08 | 26.91456 | -91.31506 | 24938 ft | 358 kts | 80° |
| 2026-04-27 10:08 | 26.91696 | -91.28722 | 24939 ft | 358 kts | 80° |
| 2026-04-27 10:08 | 26.91936 | -91.25944 | 24944 ft | 359 kts | 80° |
| 2026-04-27 10:09 | 26.92175 | -91.23162 | 24943 ft | 359 kts | 80° |
| 2026-04-27 10:09 | 26.92412 | -91.20378 | 24943 ft | 359 kts | 80° |
| 2026-04-27 10:09 | 26.92649 | -91.17599 | 24944 ft | 359 kts | 80° |
| 2026-04-27 10:09 | 26.92887 | -91.14816 | 24941 ft | 359 kts | 80° |
| 2026-04-27 10:10 | 26.93124 | -91.12032 | 24944 ft | 359 kts | 80° |
| 2026-04-27 10:10 | 26.93359 | -91.09247 | 24953 ft | 359 kts | 80° |
| 2026-04-27 10:10 | 26.93594 | -91.06459 | 24947 ft | 359 kts | 80° |
| 2026-04-27 10:10 | 26.93830 | -91.03673 | 24946 ft | 359 kts | 80° |
| 2026-04-27 10:11 | 26.94065 | -91.00883 | 24947 ft | 359 kts | 80° |
| 2026-04-27 10:11 | 26.94299 | -90.98099 | 24950 ft | 359 kts | 80° |
| 2026-04-27 10:11 | 26.94532 | -90.95310 | 24952 ft | 359 kts | 80° |
| 2026-04-27 10:11 | 26.94764 | -90.92526 | 24945 ft | 359 kts | 80° |
| 2026-04-27 10:12 | 26.94998 | -90.89731 | 24948 ft | 359 kts | 80° |
| 2026-04-27 10:12 | 26.95230 | -90.86942 | 24955 ft | 359 kts | 80° |
| 2026-04-27 10:12 | 26.95518 | -90.84170 | 24950 ft | 356 kts | 73° |
| 2026-04-27 10:12 | 26.96332 | -90.81592 | 24945 ft | 346 kts | 55° |
| 2026-04-27 10:13 | 26.97734 | -90.79480 | 24945 ft | 335 kts | 38° |
| 2026-04-27 10:13 | 26.99472 | -90.77763 | 24954 ft | 330 kts | 32° |
| 2026-04-27 10:13 | 27.01274 | -90.76172 | 24952 ft | 330 kts | 31° |
| 2026-04-27 10:13 | 27.03083 | -90.74610 | 24952 ft | 330 kts | 30° |
| 2026-04-27 10:14 | 27.04890 | -90.73064 | 24953 ft | 329 kts | 30° |
| 2026-04-27 10:14 | 27.06712 | -90.71509 | 24956 ft | 329 kts | 30° |
| 2026-04-27 10:14 | 27.08545 | -90.69946 | 24956 ft | 329 kts | 30° |
| 2026-04-27 10:14 | 27.10370 | -90.68390 | 24962 ft | 329 kts | 30° |
| 2026-04-27 10:15 | 27.12194 | -90.66835 | 24949 ft | 329 kts | 30° |
| 2026-04-27 10:15 | 27.14016 | -90.65279 | 24955 ft | 329 kts | 30° |
| 2026-04-27 10:15 | 27.15841 | -90.63721 | 24951 ft | 329 kts | 30° |
| 2026-04-27 10:15 | 27.17660 | -90.62163 | 24960 ft | 330 kts | 31° |
| 2026-04-27 10:16 | 27.19424 | -90.60500 | 24961 ft | 333 kts | 36° |
| 2026-04-27 10:16 | 27.21038 | -90.58614 | 24952 ft | 338 kts | 43° |
| 2026-04-27 10:16 | 27.22460 | -90.56493 | 24946 ft | 342 kts | 50° |
| 2026-04-27 10:16 | 27.23655 | -90.54157 | 24948 ft | 347 kts | 57° |
| 2026-04-27 10:17 | 27.24556 | -90.51615 | 24940 ft | 354 kts | 68° |
| 2026-04-27 10:17 | 27.24974 | -90.48869 | 24944 ft | 360 kts | 81° |
| 2026-04-27 10:17 | 27.25089 | -90.46048 | 24951 ft | 361 kts | 83° |
| 2026-04-27 10:17 | 27.25274 | -90.43245 | 24949 ft | 359 kts | 78° |
| 2026-04-27 10:18 | 27.25672 | -90.40485 | 24954 ft | 357 kts | 74° |
| 2026-04-27 10:18 | 27.26082 | -90.37735 | 24951 ft | 358 kts | 77° |
| 2026-04-27 10:18 | 27.26368 | -90.34940 | 24954 ft | 360 kts | 79° |
| 2026-04-27 10:18 | 27.26640 | -90.32144 | 24955 ft | 359 kts | 78° |
| 2026-04-27 10:19 | 27.26988 | -90.29368 | 24955 ft | 358 kts | 76° |
| 2026-04-27 10:19 | 27.27345 | -90.26593 | 24959 ft | 359 kts | 77° |
| 2026-04-27 10:19 | 27.27654 | -90.23804 | 24958 ft | 360 kts | 78° |
| 2026-04-27 10:19 | 27.27957 | -90.21017 | 24962 ft | 359 kts | 77° |
| 2026-04-27 10:20 | 27.28289 | -90.18230 | 24963 ft | 359 kts | 77° |
| 2026-04-27 10:20 | 27.28622 | -90.15447 | 24963 ft | 359 kts | 77° |
| 2026-04-27 10:20 | 27.28934 | -90.12692 | 24962 ft | 360 kts | 78° |
| 2026-04-27 10:20 | 27.29248 | -90.09903 | 24971 ft | 360 kts | 77° |
| 2026-04-27 10:21 | 27.29572 | -90.07117 | 24971 ft | 360 kts | 77° |
| 2026-04-27 10:21 | 27.29897 | -90.04329 | 24973 ft | 360 kts | 77° |
| 2026-04-27 10:21 | 27.30214 | -90.01535 | 24970 ft | 360 kts | 77° |
| 2026-04-27 10:21 | 27.30531 | -89.98741 | 24971 ft | 360 kts | 77° |
| 2026-04-27 10:22 | 27.30851 | -89.95950 | 24973 ft | 360 kts | 77° |
| 2026-04-27 10:22 | 27.31170 | -89.93160 | 24972 ft | 360 kts | 77° |
| 2026-04-27 10:22 | 27.31487 | -89.90365 | 24973 ft | 360 kts | 77° |
| 2026-04-27 10:22 | 27.31804 | -89.87569 | 24970 ft | 360 kts | 77° |
| 2026-04-27 10:23 | 27.32120 | -89.84773 | 24976 ft | 360 kts | 77° |
| 2026-04-27 10:23 | 27.32438 | -89.81975 | 24976 ft | 360 kts | 77° |
| 2026-04-27 10:23 | 27.32754 | -89.79179 | 24976 ft | 360 kts | 77° |
| 2026-04-27 10:23 | 27.33064 | -89.76418 | 24976 ft | 360 kts | 77° |
| 2026-04-27 10:24 | 27.33379 | -89.73618 | 24975 ft | 360 kts | 77° |
| 2026-04-27 10:24 | 27.33693 | -89.70826 | 24979 ft | 360 kts | 77° |
| 2026-04-27 10:24 | 27.34006 | -89.68031 | 24979 ft | 360 kts | 77° |
| 2026-04-27 10:24 | 27.34318 | -89.65239 | 24981 ft | 360 kts | 77° |
| 2026-04-27 10:25 | 27.34631 | -89.62435 | 24977 ft | 360 kts | 77° |
| 2026-04-27 10:25 | 27.34944 | -89.59636 | 24978 ft | 360 kts | 77° |
| 2026-04-27 10:25 | 27.35254 | -89.56840 | 24980 ft | 360 kts | 77° |
| 2026-04-27 10:25 | 27.35561 | -89.54081 | 24979 ft | 360 kts | 77° |
| 2026-04-27 10:26 | 27.35872 | -89.51279 | 24980 ft | 360 kts | 77° |
| 2026-04-27 10:26 | 27.36181 | -89.48482 | 24978 ft | 360 kts | 77° |
| 2026-04-27 10:26 | 27.36489 | -89.45684 | 24981 ft | 360 kts | 77° |
| 2026-04-27 10:26 | 27.36799 | -89.42883 | 24981 ft | 360 kts | 77° |
| 2026-04-27 10:27 | 27.37108 | -89.40083 | 24980 ft | 360 kts | 77° |
| 2026-04-27 10:27 | 27.37414 | -89.37290 | 24981 ft | 360 kts | 77° |
| 2026-04-27 10:27 | 27.37720 | -89.34488 | 24983 ft | 360 kts | 77° |
| 2026-04-27 10:27 | 27.38027 | -89.31692 | 24982 ft | 360 kts | 77° |
| 2026-04-27 10:28 | 27.38332 | -89.28893 | 24979 ft | 360 kts | 77° |
| 2026-04-27 10:28 | 27.38632 | -89.26136 | 24984 ft | 360 kts | 77° |
| 2026-04-27 10:28 | 27.38941 | -89.23301 | 24984 ft | 360 kts | 77° |
| 2026-04-27 10:28 | 27.39241 | -89.20540 | 24984 ft | 360 kts | 77° |
| 2026-04-27 10:29 | 27.39545 | -89.17737 | 24983 ft | 360 kts | 77° |
| 2026-04-27 10:29 | 27.39847 | -89.14942 | 24984 ft | 360 kts | 77° |
| 2026-04-27 10:29 | 27.40149 | -89.12144 | 24989 ft | 360 kts | 77° |
| 2026-04-27 10:29 | 27.40451 | -89.09349 | 24983 ft | 360 kts | 77° |
| 2026-04-27 10:30 | 27.40752 | -89.06548 | 24987 ft | 360 kts | 77° |
| 2026-04-27 10:30 | 27.41052 | -89.03751 | 24987 ft | 360 kts | 78° |
| 2026-04-27 10:30 | 27.41352 | -89.00947 | 24994 ft | 360 kts | 78° |
| 2026-04-27 10:30 | 27.41652 | -88.98146 | 24987 ft | 360 kts | 78° |
| 2026-04-27 10:31 | 27.41951 | -88.95345 | 24988 ft | 360 kts | 78° |
| 2026-04-27 10:31 | 27.42250 | -88.92540 | 24988 ft | 360 kts | 78° |
| 2026-04-27 10:31 | 27.42547 | -88.89739 | 24989 ft | 360 kts | 78° |
| 2026-04-27 10:31 | 27.42841 | -88.86975 | 24992 ft | 360 kts | 78° |
| 2026-04-27 10:32 | 27.43138 | -88.84171 | 24992 ft | 360 kts | 78° |
| 2026-04-27 10:32 | 27.43434 | -88.81369 | 24993 ft | 360 kts | 78° |
| 2026-04-27 10:32 | 27.43729 | -88.78569 | 24990 ft | 360 kts | 78° |
| 2026-04-27 10:32 | 27.44024 | -88.75769 | 24992 ft | 360 kts | 78° |
| 2026-04-27 10:33 | 27.44319 | -88.72967 | 24993 ft | 360 kts | 78° |
| 2026-04-27 10:33 | 27.44613 | -88.70165 | 24996 ft | 360 kts | 78° |
| 2026-04-27 10:33 | 27.44906 | -88.67364 | 24997 ft | 360 kts | 78° |
| 2026-04-27 10:33 | 27.45199 | -88.64553 | 24993 ft | 361 kts | 78° |
| 2026-04-27 10:34 | 27.45492 | -88.61748 | 24994 ft | 360 kts | 78° |
| 2026-04-27 10:34 | 27.45784 | -88.58943 | 24992 ft | 360 kts | 78° |
| 2026-04-27 10:34 | 27.46075 | -88.56143 | 24994 ft | 360 kts | 78° |
| 2026-04-27 10:34 | 27.46365 | -88.53339 | 24996 ft | 360 kts | 78° |
| 2026-04-27 10:35 | 27.46655 | -88.50537 | 24994 ft | 360 kts | 78° |
| 2026-04-27 10:35 | 27.46945 | -88.47733 | 24994 ft | 360 kts | 78° |
| 2026-04-27 10:35 | 27.47234 | -88.44930 | 24993 ft | 360 kts | 78° |
| 2026-04-27 10:35 | 27.47522 | -88.42127 | 24998 ft | 360 kts | 78° |
| 2026-04-27 10:36 | 27.47809 | -88.39330 | 24997 ft | 360 kts | 78° |
| 2026-04-27 10:36 | 27.48092 | -88.36564 | 24998 ft | 360 kts | 78° |
| 2026-04-27 10:36 | 27.48379 | -88.33756 | 24999 ft | 360 kts | 78° |
| 2026-04-27 10:36 | 27.48665 | -88.30955 | 24999 ft | 360 kts | 78° |
| 2026-04-27 10:37 | 27.48950 | -88.28154 | 25000 ft | 360 kts | 78° |
| 2026-04-27 10:37 | 27.49236 | -88.25347 | 24997 ft | 360 kts | 78° |
| 2026-04-27 10:37 | 27.49520 | -88.22545 | 25002 ft | 360 kts | 78° |
| 2026-04-27 10:37 | 27.49804 | -88.19738 | 24998 ft | 360 kts | 78° |
| 2026-04-27 10:38 | 27.50086 | -88.16937 | 25002 ft | 360 kts | 78° |
| 2026-04-27 10:38 | 27.50369 | -88.14132 | 25002 ft | 360 kts | 78° |
| 2026-04-27 10:38 | 27.50648 | -88.11364 | 25002 ft | 360 kts | 78° |
| 2026-04-27 10:38 | 27.50929 | -88.08563 | 25001 ft | 360 kts | 78° |
| 2026-04-27 10:39 | 27.51209 | -88.05765 | 25004 ft | 360 kts | 78° |
| 2026-04-27 10:39 | 27.51489 | -88.02958 | 25004 ft | 360 kts | 78° |
| 2026-04-27 10:39 | 27.51769 | -88.00160 | 25005 ft | 360 kts | 78° |
| 2026-04-27 10:39 | 27.52047 | -87.97361 | 25002 ft | 360 kts | 78° |
| 2026-04-27 10:40 | 27.52326 | -87.94556 | 25000 ft | 360 kts | 78° |
| 2026-04-27 10:40 | 27.52603 | -87.91754 | 25003 ft | 360 kts | 78° |
| 2026-04-27 10:40 | 27.52882 | -87.88942 | 25003 ft | 360 kts | 78° |
| 2026-04-27 10:40 | 27.53160 | -87.86131 | 25003 ft | 360 kts | 78° |
| 2026-04-27 10:41 | 27.53433 | -87.83356 | 25003 ft | 360 kts | 79° |
| 2026-04-27 10:41 | 27.53708 | -87.80553 | 25004 ft | 360 kts | 79° |
| 2026-04-27 10:41 | 27.53983 | -87.77754 | 25004 ft | 360 kts | 79° |
| 2026-04-27 10:41 | 27.54258 | -87.74946 | 25004 ft | 360 kts | 79° |
| 2026-04-27 10:42 | 27.54532 | -87.72144 | 25011 ft | 360 kts | 79° |
| 2026-04-27 10:42 | 27.54713 | -87.70287 | 25009 ft | 360 kts | 79° |
| 2026-04-27 10:42 | 27.54986 | -87.67487 | 25012 ft | 360 kts | 79° |
| 2026-04-27 10:42 | 27.55350 | -87.63737 | 25007 ft | 360 kts | 79° |
| 2026-04-27 10:43 | 27.55618 | -87.60962 | 25013 ft | 360 kts | 79° |
| 2026-04-27 10:43 | 27.55890 | -87.58158 | 25011 ft | 360 kts | 79° |
| 2026-04-27 10:43 | 27.56072 | -87.56267 | 25014 ft | 360 kts | 79° |
| 2026-04-27 10:43 | 27.56343 | -87.53457 | 25012 ft | 360 kts | 79° |
| 2026-04-27 10:44 | 27.56609 | -87.50688 | 25009 ft | 360 kts | 79° |
| 2026-04-27 10:44 | 27.56878 | -87.47885 | 25013 ft | 360 kts | 79° |
| 2026-04-27 10:44 | 27.57147 | -87.45077 | 25011 ft | 360 kts | 79° |
| 2026-04-27 10:44 | 27.57415 | -87.42268 | 25007 ft | 360 kts | 79° |
| 2026-04-27 10:45 | 27.57683 | -87.39453 | 25011 ft | 360 kts | 79° |
| 2026-04-27 10:45 | 27.57950 | -87.36649 | 25012 ft | 360 kts | 79° |
| 2026-04-27 10:45 | 27.58216 | -87.33844 | 25011 ft | 360 kts | 79° |
| 2026-04-27 10:45 | 27.58482 | -87.31034 | 25009 ft | 360 kts | 79° |
| 2026-04-27 10:46 | 27.58748 | -87.28218 | 25014 ft | 360 kts | 79° |
| 2026-04-27 10:46 | 27.59013 | -87.25407 | 25013 ft | 360 kts | 79° |
| 2026-04-27 10:46 | 27.59275 | -87.22630 | 25014 ft | 361 kts | 79° |
| 2026-04-27 10:46 | 27.59542 | -87.19783 | 25009 ft | 361 kts | 79° |
| 2026-04-27 10:47 | 27.59803 | -87.16997 | 25010 ft | 361 kts | 79° |
| 2026-04-27 10:47 | 27.60065 | -87.14185 | 25012 ft | 361 kts | 79° |
| 2026-04-27 10:47 | 27.60328 | -87.11366 | 25017 ft | 361 kts | 79° |
| 2026-04-27 10:47 | 27.60591 | -87.08546 | 25013 ft | 361 kts | 79° |
| 2026-04-27 10:48 | 27.60852 | -87.05726 | 25014 ft | 361 kts | 79° |
| 2026-04-27 10:48 | 27.61112 | -87.02913 | 25015 ft | 361 kts | 79° |
| 2026-04-27 10:48 | 27.61374 | -87.00091 | 25012 ft | 361 kts | 79° |
| 2026-04-27 10:48 | 27.61635 | -86.97273 | 25013 ft | 362 kts | 79° |
| 2026-04-27 10:49 | 27.61889 | -86.94487 | 25016 ft | 362 kts | 79° |
| 2026-04-27 10:49 | 27.62149 | -86.91663 | 25017 ft | 362 kts | 79° |
| 2026-04-27 10:49 | 27.62408 | -86.88840 | 25022 ft | 362 kts | 79° |
| 2026-04-27 10:49 | 27.62667 | -86.86017 | 25016 ft | 362 kts | 79° |
| 2026-04-27 10:50 | 27.62923 | -86.83195 | 25018 ft | 362 kts | 79° |
| 2026-04-27 10:50 | 27.63180 | -86.80368 | 25017 ft | 362 kts | 79° |
| 2026-04-27 10:50 | 27.63437 | -86.77544 | 25020 ft | 362 kts | 79° |
| 2026-04-27 10:50 | 27.63693 | -86.74716 | 25014 ft | 362 kts | 79° |
| 2026-04-27 10:51 | 27.63945 | -86.71924 | 25017 ft | 362 kts | 79° |
| 2026-04-27 10:51 | 27.64199 | -86.69102 | 25021 ft | 362 kts | 79° |
| 2026-04-27 10:51 | 27.64454 | -86.66276 | 25020 ft | 362 kts | 79° |
| 2026-04-27 10:51 | 27.64708 | -86.63450 | 25018 ft | 362 kts | 79° |
| 2026-04-27 10:52 | 27.64960 | -86.60620 | 25021 ft | 362 kts | 79° |
| 2026-04-27 10:52 | 27.65213 | -86.57792 | 25015 ft | 362 kts | 79° |
| 2026-04-27 10:52 | 27.65466 | -86.54963 | 25021 ft | 362 kts | 79° |
| 2026-04-27 10:52 | 27.65717 | -86.52137 | 25027 ft | 362 kts | 80° |
| 2026-04-27 10:53 | 27.65968 | -86.49302 | 25026 ft | 362 kts | 80° |
| 2026-04-27 10:53 | 27.66465 | -86.43676 | 25029 ft | 362 kts | 80° |
| 2026-04-27 10:53 | 27.66717 | -86.40840 | 25025 ft | 362 kts | 80° |
| 2026-04-27 10:54 | 27.66964 | -86.38010 | 25025 ft | 362 kts | 80° |
| 2026-04-27 10:54 | 27.67210 | -86.35186 | 25027 ft | 362 kts | 80° |
| 2026-04-27 10:54 | 27.67459 | -86.32353 | 25027 ft | 362 kts | 80° |
| 2026-04-27 10:54 | 27.67707 | -86.29525 | 25021 ft | 362 kts | 80° |
| 2026-04-27 10:55 | 27.67953 | -86.26693 | 25020 ft | 362 kts | 80° |
| 2026-04-27 10:55 | 27.68194 | -86.23901 | 25026 ft | 362 kts | 80° |
| 2026-04-27 10:55 | 27.68440 | -86.21076 | 25025 ft | 362 kts | 80° |
| 2026-04-27 10:55 | 27.68685 | -86.18247 | 24925 ft | 362 kts | 78° |
| 2026-04-27 10:56 | 27.68922 | -86.15432 | 25009 ft | 359 kts | 78° |
| 2026-04-27 10:56 | 27.69169 | -86.12626 | 25010 ft | 359 kts | 78° |
| 2026-04-27 10:56 | 27.69416 | -86.09810 | 25012 ft | 360 kts | 78° |
| 2026-04-27 10:56 | 27.69650 | -86.06998 | 25013 ft | 360 kts | 78° |
| 2026-04-27 10:57 | 27.69888 | -86.04180 | 25014 ft | 360 kts | 78° |
| 2026-04-27 10:57 | 27.70133 | -86.01363 | 25014 ft | 360 kts | 78° |
| 2026-04-27 10:57 | 27.70370 | -85.98578 | 25013 ft | 361 kts | 78° |
| 2026-04-27 10:57 | 27.70606 | -85.95760 | 25017 ft | 361 kts | 78° |
| 2026-04-27 10:58 | 27.70846 | -85.92933 | 25017 ft | 361 kts | 78° |
| 2026-04-27 10:58 | 27.71086 | -85.90113 | 25021 ft | 361 kts | 78° |
| 2026-04-27 10:58 | 27.71323 | -85.87285 | 25020 ft | 361 kts | 78° |
| 2026-04-27 10:58 | 27.71559 | -85.84456 | 25021 ft | 361 kts | 78° |
| 2026-04-27 10:59 | 27.71797 | -85.81630 | 25022 ft | 361 kts | 78° |
| 2026-04-27 10:59 | 27.72031 | -85.78837 | 25024 ft | 362 kts | 78° |
| 2026-04-27 10:59 | 27.72265 | -85.76011 | 25024 ft | 362 kts | 78° |
| 2026-04-27 11:00 | 27.72735 | -85.70354 | 25030 ft | 362 kts | 78° |
| 2026-04-27 11:00 | 27.72970 | -85.67520 | 25028 ft | 362 kts | 78° |
| 2026-04-27 11:00 | 27.73203 | -85.64690 | 25026 ft | 362 kts | 78° |
| 2026-04-27 11:00 | 27.73436 | -85.61859 | 25023 ft | 362 kts | 78° |
| 2026-04-27 11:01 | 27.73666 | -85.59054 | 25024 ft | 362 kts | 78° |
| 2026-04-27 11:01 | 27.73898 | -85.56231 | 25021 ft | 361 kts | 78° |
| 2026-04-27 11:01 | 27.74129 | -85.53405 | 25022 ft | 361 kts | 79° |
| 2026-04-27 11:01 | 27.74359 | -85.50569 | 25032 ft | 361 kts | 79° |
| 2026-04-27 11:02 | 27.74588 | -85.47748 | 25027 ft | 361 kts | 79° |
| 2026-04-27 11:02 | 27.74815 | -85.44957 | 25030 ft | 361 kts | 79° |
| 2026-04-27 11:02 | 27.75044 | -85.42128 | 25032 ft | 361 kts | 79° |
| 2026-04-27 11:02 | 27.75271 | -85.39306 | 25028 ft | 361 kts | 79° |
| 2026-04-27 11:03 | 27.75498 | -85.36485 | 25030 ft | 361 kts | 79° |
| 2026-04-27 11:03 | 27.75724 | -85.33664 | 25029 ft | 360 kts | 79° |
| 2026-04-27 11:03 | 27.75951 | -85.30839 | 25030 ft | 360 kts | 79° |
| 2026-04-27 11:03 | 27.76176 | -85.28026 | 25031 ft | 360 kts | 79° |
| 2026-04-27 11:04 | 27.76399 | -85.25206 | 25028 ft | 360 kts | 79° |
| 2026-04-27 11:04 | 27.76620 | -85.22429 | 25027 ft | 360 kts | 79° |
| 2026-04-27 11:04 | 27.76844 | -85.19613 | 25029 ft | 359 kts | 79° |
| 2026-04-27 11:04 | 27.77066 | -85.16799 | 25028 ft | 359 kts | 79° |
| 2026-04-27 11:05 | 27.77287 | -85.13990 | 25031 ft | 359 kts | 79° |
| 2026-04-27 11:05 | 27.77508 | -85.11186 | 25030 ft | 359 kts | 79° |
| 2026-04-27 11:05 | 27.77728 | -85.08377 | 25031 ft | 358 kts | 79° |
| 2026-04-27 11:05 | 27.77947 | -85.05574 | 25028 ft | 358 kts | 79° |
| 2026-04-27 11:06 | 27.78164 | -85.02778 | 25028 ft | 358 kts | 79° |
| 2026-04-27 11:06 | 27.78383 | -84.99974 | 25026 ft | 358 kts | 79° |
| 2026-04-27 11:06 | 27.78600 | -84.97176 | 25029 ft | 357 kts | 79° |
| 2026-04-27 11:06 | 27.78814 | -84.94411 | 25030 ft | 357 kts | 79° |
| 2026-04-27 11:07 | 27.79030 | -84.91615 | 25030 ft | 357 kts | 79° |
| 2026-04-27 11:07 | 27.79245 | -84.88825 | 25028 ft | 357 kts | 80° |
| 2026-04-27 11:07 | 27.79459 | -84.86036 | 25027 ft | 356 kts | 80° |
| 2026-04-27 11:07 | 27.79672 | -84.83244 | 25030 ft | 356 kts | 80° |
| 2026-04-27 11:08 | 27.79886 | -84.80447 | 25030 ft | 356 kts | 80° |
| 2026-04-27 11:08 | 27.80098 | -84.77661 | 25032 ft | 356 kts | 80° |
| 2026-04-27 11:08 | 27.80310 | -84.74874 | 25031 ft | 356 kts | 80° |
| 2026-04-27 11:08 | 27.80521 | -84.72091 | 25026 ft | 356 kts | 80° |
| 2026-04-27 11:09 | 27.80731 | -84.69303 | 25029 ft | 356 kts | 80° |
| 2026-04-27 11:09 | 27.80941 | -84.66518 | 25029 ft | 355 kts | 80° |
| 2026-04-27 11:09 | 27.81148 | -84.63768 | 25029 ft | 355 kts | 80° |
| 2026-04-27 11:09 | 27.81356 | -84.60984 | 25024 ft | 355 kts | 80° |
| 2026-04-27 11:10 | 27.81564 | -84.58203 | 25029 ft | 355 kts | 80° |
| 2026-04-27 11:10 | 27.81771 | -84.55421 | 25029 ft | 355 kts | 80° |
| 2026-04-27 11:10 | 27.81978 | -84.52644 | 25029 ft | 355 kts | 80° |
| 2026-04-27 11:10 | 27.82184 | -84.49861 | 25030 ft | 355 kts | 80° |
| 2026-04-27 11:11 | 27.82389 | -84.47079 | 25026 ft | 355 kts | 80° |
| 2026-04-27 11:11 | 27.82595 | -84.44298 | 25021 ft | 355 kts | 80° |
| 2026-04-27 11:11 | 27.82800 | -84.41518 | 25027 ft | 355 kts | 80° |
| 2026-04-27 11:11 | 27.83003 | -84.38743 | 25028 ft | 355 kts | 80° |
| 2026-04-27 11:12 | 27.83206 | -84.35964 | 25026 ft | 355 kts | 80° |
| 2026-04-27 11:12 | 27.83408 | -84.33182 | 25028 ft | 355 kts | 80° |
| 2026-04-27 11:12 | 27.83611 | -84.30398 | 25030 ft | 355 kts | 80° |
| 2026-04-27 11:12 | 27.83813 | -84.27616 | 25030 ft | 355 kts | 80° |
| 2026-04-27 11:13 | 27.84014 | -84.24835 | 25029 ft | 355 kts | 80° |
| 2026-04-27 11:13 | 27.84214 | -84.22052 | 25028 ft | 355 kts | 80° |
| 2026-04-27 11:13 | 27.84412 | -84.19303 | 25025 ft | 355 kts | 80° |
| 2026-04-27 11:13 | 27.84612 | -84.16517 | 25025 ft | 355 kts | 80° |
| 2026-04-27 11:14 | 27.84811 | -84.13731 | 25027 ft | 355 kts | 80° |
| 2026-04-27 11:14 | 27.85009 | -84.10947 | 25031 ft | 355 kts | 80° |
| 2026-04-27 11:14 | 27.85207 | -84.08156 | 25028 ft | 356 kts | 80° |
| 2026-04-27 11:14 | 27.85410 | -84.05333 | 24610 ft | 368 kts | 81° |
| 2026-04-27 11:15 | 27.85622 | -84.02399 | 24051 ft | 380 kts | 81° |
| 2026-04-27 11:15 | 27.85827 | -83.99423 | 23489 ft | 387 kts | 82° |
| 2026-04-27 11:15 | 27.86036 | -83.96371 | 22833 ft | 391 kts | 82° |
| 2026-04-27 11:15 | 27.86252 | -83.93305 | 22192 ft | 392 kts | 82° |
| 2026-04-27 11:16 | 27.86470 | -83.90228 | 21561 ft | 392 kts | 82° |
| 2026-04-27 11:16 | 27.86681 | -83.87160 | 20949 ft | 391 kts | 82° |
| 2026-04-27 11:16 | 27.86891 | -83.84097 | 20342 ft | 389 kts | 82° |
| 2026-04-27 11:16 | 27.87102 | -83.81063 | 19748 ft | 386 kts | 82° |
| 2026-04-27 11:17 | 27.87312 | -83.78043 | 19169 ft | 384 kts | 82° |
| 2026-04-27 11:17 | 27.87516 | -83.75042 | 18600 ft | 381 kts | 83° |
| 2026-04-27 11:17 | 27.87719 | -83.72067 | 17996 ft | 379 kts | 83° |
| 2026-04-27 11:17 | 27.87922 | -83.69106 | 17355 ft | 376 kts | 83° |
| 2026-04-27 11:18 | 27.88121 | -83.66205 | 16732 ft | 373 kts | 83° |
| 2026-04-27 11:18 | 27.88317 | -83.63292 | 16117 ft | 369 kts | 83° |
| 2026-04-27 11:18 | 27.88510 | -83.60405 | 15513 ft | 366 kts | 83° |
| 2026-04-27 11:18 | 27.88705 | -83.57541 | 14919 ft | 363 kts | 83° |
| 2026-04-27 11:19 | 27.88898 | -83.54696 | 14336 ft | 359 kts | 83° |
| 2026-04-27 11:19 | 27.89080 | -83.51931 | 13770 ft | 356 kts | 83° |
| 2026-04-27 11:19 | 27.89265 | -83.49153 | 13126 ft | 353 kts | 83° |
| 2026-04-27 11:19 | 27.89452 | -83.46392 | 12495 ft | 351 kts | 83° |
| 2026-04-27 11:20 | 27.89635 | -83.43651 | 11877 ft | 348 kts | 84° |
| 2026-04-27 11:20 | 27.89812 | -83.40931 | 11272 ft | 346 kts | 84° |
| 2026-04-27 11:20 | 27.89990 | -83.38219 | 10678 ft | 345 kts | 84° |
| 2026-04-27 11:20 | 27.90170 | -83.35523 | 10101 ft | 343 kts | 84° |
| 2026-04-27 11:21 | 27.90343 | -83.32885 | 10003 ft | 329 kts | 84° |
| 2026-04-27 11:21 | 27.90504 | -83.30350 | 10002 ft | 319 kts | 84° |
| 2026-04-27 11:21 | 27.90668 | -83.27880 | 9999 ft | 313 kts | 84° |
| 2026-04-27 11:21 | 27.90831 | -83.25439 | 9994 ft | 310 kts | 84° |
| 2026-04-27 11:22 | 27.90984 | -83.23021 | 9996 ft | 308 kts | 84° |
| 2026-04-27 11:22 | 27.91138 | -83.20610 | 9997 ft | 306 kts | 84° |
| 2026-04-27 11:22 | 27.91296 | -83.18210 | 9996 ft | 306 kts | 84° |
| 2026-04-27 11:22 | 27.91452 | -83.15812 | 10000 ft | 306 kts | 84° |
| 2026-04-27 11:23 | 27.91602 | -83.13420 | 10001 ft | 305 kts | 84° |
| 2026-04-27 11:23 | 27.91571 | -83.11054 | 9995 ft | 306 kts | 97° |
| 2026-04-27 11:23 | 27.90904 | -83.08763 | 9985 ft | 308 kts | 117° |
| 2026-04-27 11:23 | 27.89597 | -83.06856 | 9985 ft | 310 kts | 136° |
| 2026-04-27 11:24 | 27.87845 | -83.05419 | 10000 ft | 311 kts | 147° |
| 2026-04-27 11:24 | 27.86041 | -83.04087 | 9995 ft | 310 kts | 143° |
| 2026-04-27 11:24 | 27.84420 | -83.02477 | 10000 ft | 310 kts | 133° |
| 2026-04-27 11:24 | 27.82963 | -83.00681 | 9999 ft | 309 kts | 131° |
| 2026-04-27 11:25 | 27.81431 | -82.98973 | 10002 ft | 310 kts | 137° |
| 2026-04-27 11:25 | 27.79810 | -82.97416 | 9997 ft | 310 kts | 139° |
| 2026-04-27 11:25 | 27.78219 | -82.95776 | 10001 ft | 310 kts | 134° |
| 2026-04-27 11:25 | 27.76700 | -82.94041 | 9996 ft | 310 kts | 134° |
| 2026-04-27 11:26 | 27.75139 | -82.92358 | 9996 ft | 310 kts | 137° |
| 2026-04-27 11:26 | 27.73525 | -82.90739 | 9987 ft | 310 kts | 137° |
| 2026-04-27 11:26 | 27.71914 | -82.89052 | 9477 ft | 324 kts | 135° |
| 2026-04-27 11:26 | 27.70274 | -82.87238 | 8844 ft | 333 kts | 135° |
| 2026-04-27 11:27 | 27.68580 | -82.85432 | 8222 ft | 337 kts | 137° |
| 2026-04-27 11:27 | 27.66842 | -82.83657 | 7602 ft | 338 kts | 137° |
| 2026-04-27 11:27 | 27.65121 | -82.81845 | 7010 ft | 337 kts | 135° |
| 2026-04-27 11:27 | 27.63432 | -82.80006 | 6421 ft | 336 kts | 135° |
| 2026-04-27 11:28 | 27.61731 | -82.78203 | 5801 ft | 335 kts | 136° |
| 2026-04-27 11:28 | 27.60018 | -82.76436 | 5190 ft | 333 kts | 136° |
| 2026-04-27 11:28 | 27.58350 | -82.74675 | 4996 ft | 321 kts | 135° |
| 2026-04-27 11:28 | 27.56842 | -82.72883 | 4989 ft | 310 kts | 128° |
| 2026-04-27 11:29 | 27.55576 | -82.70985 | 4987 ft | 304 kts | 124° |
| 2026-04-27 11:29 | 27.54360 | -82.69051 | 4998 ft | 301 kts | 124° |
| 2026-04-27 11:29 | 27.53145 | -82.67133 | 4997 ft | 299 kts | 124° |
| 2026-04-27 11:29 | 27.51938 | -82.65233 | 4999 ft | 298 kts | 124° |
| 2026-04-27 11:30 | 27.50736 | -82.63320 | 4998 ft | 298 kts | 123° |
| 2026-04-27 11:30 | 27.49536 | -82.61410 | 5001 ft | 298 kts | 124° |
| 2026-04-27 11:30 | 27.48738 | -82.60149 | 5000 ft | 299 kts | 124° |
| 2026-04-27 11:30 | 27.47532 | -82.58244 | 5001 ft | 299 kts | 124° |
| 2026-04-27 11:31 | 27.46326 | -82.56339 | 5001 ft | 299 kts | 124° |
| 2026-04-27 11:31 | 27.45116 | -82.54432 | 5000 ft | 299 kts | 124° |
| 2026-04-27 11:31 | 27.43913 | -82.52524 | 5001 ft | 299 kts | 124° |
| 2026-04-27 11:31 | 27.42714 | -82.50618 | 5001 ft | 298 kts | 124° |
| 2026-04-27 11:32 | 27.41506 | -82.48707 | 4783 ft | 305 kts | 124° |
| 2026-04-27 11:32 | 27.40251 | -82.46713 | 4159 ft | 317 kts | 124° |
| 2026-04-27 11:32 | 27.38965 | -82.44684 | 3565 ft | 313 kts | 124° |
| 2026-04-27 11:32 | 27.37714 | -82.42725 | 2962 ft | 301 kts | 124° |
| 2026-04-27 11:33 | 27.36529 | -82.40865 | 2519 ft | 292 kts | 123° |
| 2026-04-27 11:33 | 27.35375 | -82.39069 | 2507 ft | 276 kts | 124° |
| 2026-04-27 11:33 | 27.34275 | -82.37373 | 2513 ft | 257 kts | 124° |
| 2026-04-27 11:33 | 27.33237 | -82.35782 | 2503 ft | 247 kts | 125° |
| 2026-04-27 11:34 | 27.31982 | -82.34498 | 2493 ft | 246 kts | 146° |
| 2026-04-27 11:34 | 27.30379 | -82.33877 | 2491 ft | 242 kts | 172° |
| 2026-04-27 11:34 | 27.28759 | -82.34050 | 2488 ft | 233 kts | 197° |
| 2026-04-27 11:34 | 27.27380 | -82.34959 | 2487 ft | 228 kts | 223° |
| 2026-04-27 11:35 | 27.26429 | -82.36360 | 2485 ft | 225 kts | 242° |
| 2026-04-27 11:35 | 27.25927 | -82.37964 | 2493 ft | 210 kts | 262° |
| 2026-04-27 11:35 | 27.25910 | -82.39537 | 2490 ft | 199 kts | 281° |
| 2026-04-27 11:35 | 27.26309 | -82.40993 | 2491 ft | 193 kts | 298° |
| 2026-04-27 11:36 | 27.27067 | -82.42221 | 2490 ft | 187 kts | 316° |
| 2026-04-27 11:36 | 27.28037 | -82.43145 | 2499 ft | 178 kts | 324° |
| 2026-04-27 11:36 | 27.28971 | -82.44016 | 2493 ft | 172 kts | 322° |
| 2026-04-27 11:36 | 27.29867 | -82.44902 | 2497 ft | 169 kts | 322° |
| 2026-04-27 11:37 | 27.30752 | -82.45764 | 2490 ft | 167 kts | 322° |
| 2026-04-27 11:37 | 27.31603 | -82.46592 | 2496 ft | 155 kts | 322° |
| 2026-04-27 11:37 | 27.32398 | -82.47368 | 2496 ft | 148 kts | 322° |
| 2026-04-27 11:37 | 27.33110 | -82.48186 | 2484 ft | 144 kts | 316° |
| 2026-04-27 11:38 | 27.33788 | -82.48966 | 2458 ft | 136 kts | 317° |
| 2026-04-27 11:38 | 27.34449 | -82.49802 | 2060 ft | 147 kts | 314° |
| 2026-04-27 11:38 | 27.35128 | -82.50624 | 1687 ft | 141 kts | 317° |
| 2026-04-27 11:38 | 27.35814 | -82.51384 | 1375 ft | 133 kts | 319° |
| 2026-04-27 11:39 | 27.36521 | -82.52102 | 1062 ft | 138 kts | 319° |
| 2026-04-27 11:39 | 27.37178 | -82.52834 | 635 ft | 127 kts | 315° |
| 2026-04-27 11:39 | 27.37793 | -82.53528 | 371 ft | 123 kts | 314° |
| 2026-04-27 11:39 | 27.38393 | -82.54205 | 167 ft | 122 kts | 314° |
| 2026-04-27 11:40 | 27.38971 | -82.54860 | 37 ft | 112 kts | 313° |
| 2026-04-27 11:40 | 27.39458 | -82.55419 | 27 ft | 74 kts | 314° |
| 2026-04-27 11:40 | 27.39659 | -82.55641 | 28 ft | 37 kts | 315° |
| 2026-04-27 11:40 | 27.39682 | -82.55802 | 29 ft | 0 kts | 209° |
| 2026-04-27 11:41 | 27.39673 | -82.55806 | 29 ft | 5 kts | 194° |
| 2026-04-27 11:41 | 27.39612 | -82.55766 | 29 ft | 15 kts | 132° |
| 2026-04-27 11:41 | 27.39518 | -82.55654 | 29 ft | 24 kts | 134° |
| 2026-04-27 11:41 | 27.39431 | -82.55560 | 29 ft | 16 kts | 135° |
| 2026-04-27 11:42 | 27.39329 | -82.55439 | 28 ft | 25 kts | 134° |
| 2026-04-27 11:42 | 27.39287 | -82.55368 | 28 ft | 7 kts | 72° |
| 2026-04-27 11:42 | 27.39351 | -82.55304 | 27 ft | 18 kts | 35° |
| 2026-04-27 11:42 | 27.39453 | -82.55213 | 28 ft | 13 kts | 40° |
| 2026-04-27 11:43 | 27.39520 | -82.55152 | 29 ft | 17 kts | 39° |
| 2026-04-27 11:43 | 27.39641 | -82.55047 | 29 ft | 27 kts | 37° |
| 2026-04-27 11:43 | 27.39741 | -82.54956 | 29 ft | 12 kts | 52° |
| 2026-04-27 11:43 | 27.39742 | -82.54882 | 29 ft | 5 kts | 172° |
| 2026-04-27 11:44 | 27.39738 | -82.54885 | 29 ft | 0 kts | 214° |